createdAt,value
2023-03-28T00:01:02.023Z,6.70
2023-03-28T00:03:29.829Z,5.90
2023-03-28T00:06:03.223Z,6.50
2023-03-28T00:08:30.796Z,6.00
2023-03-28T00:11:21.285Z,5.80
2023-03-28T00:13:53.598Z,6.10
2023-03-28T00:16:20.413Z,6.40
2023-03-28T00:18:47.662Z,6.40
2023-03-28T00:21:27.485Z,5.90
2023-03-28T00:23:56.540Z,7.20
2023-03-28T00:26:26.909Z,6.90
2023-03-28T00:28:54.815Z,6.80
2023-03-28T00:31:22.491Z,7.10
2023-03-28T00:33:49.879Z,6.40
2023-03-28T00:36:26.825Z,7.40
2023-03-28T00:38:54.076Z,6.90
2023-03-28T00:41:24.887Z,7.70
2023-03-28T00:43:54.582Z,7.60
2023-03-28T00:46:34.168Z,8.30
2023-03-28T00:49:12.414Z,7.90
2023-03-28T00:51:46.654Z,8.90
2023-03-28T00:54:18.868Z,9.40
2023-03-28T00:56:49.099Z,8.60
2023-03-28T00:59:20.101Z,9.20
2023-03-28T01:01:47.616Z,9.20
2023-03-28T01:04:20.407Z,9.60
2023-03-28T01:06:52.355Z,9.70
2023-03-28T01:09:21.389Z,9.30
2023-03-28T01:11:49.366Z,8.70
2023-03-28T01:14:20.126Z,8.70
2023-03-28T01:16:48.059Z,9.20
2023-03-28T01:19:50.690Z,8.00
2023-03-28T01:22:58.007Z,8.00
2023-03-28T01:25:40.149Z,8.30
2023-03-28T01:28:19.963Z,9.30
2023-03-28T01:30:53.636Z,10.00
2023-03-28T01:33:36.143Z,8.20
2023-03-28T01:36:33.943Z,8.60
2023-03-28T01:39:25.497Z,9.60
2023-03-28T01:44:38.701Z,9.00
2023-03-28T01:47:18.307Z,9.40
2023-03-28T01:49:44.978Z,9.70
2023-03-28T01:52:21.801Z,8.80
2023-03-28T01:55:00.621Z,8.90
2023-03-28T01:57:46.187Z,8.30
2023-03-28T02:00:31.765Z,8.50
2023-03-28T02:03:03.613Z,7.90
2023-03-28T02:05:33.699Z,8.80
2023-03-28T02:10:31.847Z,8.40
2023-03-28T02:13:12.045Z,10.10
2023-03-28T02:15:42.784Z,8.80
2023-03-28T02:18:17.031Z,9.00
2023-03-28T02:20:50.186Z,9.30
2023-03-28T02:23:26.121Z,9.20
2023-03-28T02:25:53.161Z,9.10
2023-03-28T02:28:21.541Z,9.70
2023-03-28T02:30:48.956Z,9.70
2023-03-28T02:33:57.488Z,9.80
2023-03-28T02:36:38.757Z,8.60
2023-03-28T02:39:33.478Z,9.60
2023-03-28T02:42:23.283Z,9.60
2023-03-28T02:44:56.125Z,9.00
2023-03-28T02:47:30.692Z,9.60
2023-03-28T02:50:07.594Z,9.90
2023-03-28T02:52:54.261Z,8.80
2023-03-28T02:55:30.180Z,9.40
2023-03-28T02:58:08.365Z,9.40
2023-03-28T03:00:36.823Z,9.40
2023-03-28T03:03:09.001Z,8.90
2023-03-28T03:05:36.324Z,8.50
2023-03-28T03:08:03.353Z,11.00
2023-03-28T03:10:30.027Z,9.20
2023-03-28T03:12:56.856Z,8.10
2023-03-28T03:15:23.665Z,9.90
2023-03-28T03:17:51.013Z,9.90
2023-03-28T03:20:19.337Z,10.80
2023-03-28T03:22:46.065Z,11.00
2023-03-28T03:25:14.499Z,11.40
2023-03-28T03:27:41.658Z,10.60
2023-03-28T03:30:10.114Z,9.80
2023-03-28T03:32:36.928Z,11.40
2023-03-28T03:35:03.920Z,11.90
2023-03-28T03:37:30.925Z,11.00
2023-03-28T03:39:57.610Z,10.60
2023-03-28T03:42:24.467Z,10.60
2023-03-28T03:44:51.197Z,10.90
2023-03-28T03:47:19.752Z,12.30
2023-03-28T03:49:46.513Z,12.40
2023-03-28T03:52:13.232Z,11.90
2023-03-28T03:54:40.067Z,12.20
2023-03-28T03:57:07.099Z,12.90
2023-03-28T03:59:33.894Z,12.00
2023-03-28T04:02:01.614Z,13.20
2023-03-28T04:04:28.532Z,12.40
2023-03-28T04:06:58.196Z,13.70
2023-03-28T04:09:27.395Z,11.70
2023-03-28T04:11:55.012Z,11.90
2023-03-28T04:14:22.439Z,12.40
2023-03-28T04:16:54.055Z,14.00
2023-03-28T04:19:21.219Z,12.00
2023-03-28T04:21:48.932Z,13.60
2023-03-28T04:24:16.351Z,12.40
2023-03-28T04:26:45.964Z,13.30
2023-03-28T04:29:13.599Z,14.40
2023-03-28T04:31:40.584Z,11.90
2023-03-28T04:34:07.856Z,11.60
2023-03-28T04:36:34.532Z,10.60
2023-03-28T04:39:02.919Z,10.90
2023-03-28T04:41:33.380Z,12.00
2023-03-28T04:44:01.107Z,10.60
2023-03-28T04:46:29.712Z,12.20
2023-03-28T04:48:57.106Z,11.50
2023-03-28T04:51:25.296Z,11.40
2023-03-28T04:53:52.097Z,11.90
2023-03-28T04:56:18.831Z,10.90
2023-03-28T04:58:45.614Z,11.50
2023-03-28T05:01:13.775Z,10.50
2023-03-28T05:03:41.284Z,10.40
2023-03-28T05:06:08.194Z,8.40
2023-03-28T05:08:34.877Z,10.90
2023-03-28T05:11:02.044Z,10.70
2023-03-28T05:13:28.940Z,9.70
2023-03-28T05:15:55.789Z,8.70
2023-03-28T05:18:22.714Z,9.10
2023-03-28T05:20:49.432Z,8.10
2023-03-28T05:23:16.274Z,9.20
2023-03-28T05:25:43.428Z,7.70
2023-03-28T05:28:10.607Z,9.20
2023-03-28T05:30:37.381Z,9.10
2023-03-28T05:33:04.637Z,8.00
2023-03-28T05:35:31.508Z,7.90
2023-03-28T05:37:58.267Z,8.20
2023-03-28T05:40:25.104Z,9.60
2023-03-28T05:42:51.870Z,7.70
2023-03-28T05:45:18.961Z,9.20
2023-03-28T05:47:45.820Z,8.90
2023-03-28T05:50:12.616Z,8.00
2023-03-28T05:52:39.402Z,8.80
2023-03-28T05:55:07.872Z,7.90
2023-03-28T05:57:34.793Z,8.40
2023-03-28T06:00:03.894Z,8.90
2023-03-28T06:02:31.132Z,9.10
2023-03-28T06:04:58.102Z,8.80
2023-03-28T06:07:35.276Z,8.80
2023-03-28T06:10:10.061Z,9.00
2023-03-28T06:12:36.804Z,7.20
2023-03-28T06:15:06.256Z,9.70
2023-03-28T06:17:33.241Z,8.10
2023-03-28T06:20:00.205Z,9.60
2023-03-28T06:22:27.556Z,7.20
2023-03-28T06:24:54.275Z,7.40
2023-03-28T06:27:21.118Z,8.90
2023-03-28T06:29:47.808Z,9.30
2023-03-28T06:32:19.373Z,7.10
2023-03-28T06:34:46.566Z,8.90
2023-03-28T06:37:13.369Z,7.10
2023-03-28T06:39:40.093Z,9.40
2023-03-28T06:42:06.853Z,8.50
2023-03-28T06:44:33.671Z,8.10
2023-03-28T06:47:01.077Z,8.20
2023-03-28T06:49:27.968Z,9.30
2023-03-28T06:51:54.828Z,9.60
2023-03-28T06:54:21.814Z,9.10
2023-03-28T06:56:48.746Z,9.00
2023-03-28T06:59:15.830Z,9.90
2023-03-28T07:01:42.917Z,10.40
2023-03-28T07:04:09.880Z,9.30
2023-03-28T07:06:36.988Z,9.30
2023-03-28T07:09:06.186Z,9.40
2023-03-28T07:14:00.620Z,8.80
2023-03-28T07:16:27.561Z,8.50
2023-03-28T07:18:54.926Z,8.20
2023-03-28T07:21:21.693Z,8.10
2023-03-28T07:23:48.418Z,8.60
2023-03-28T07:26:17.115Z,7.90
2023-03-28T07:28:43.914Z,7.60
2023-03-28T07:31:11.506Z,7.60
2023-03-28T07:33:38.995Z,6.60
2023-03-28T07:36:24.828Z,7.90
2023-03-28T07:38:51.731Z,7.20
2023-03-28T07:41:19.561Z,7.50
2023-03-28T07:43:46.482Z,5.90
2023-03-28T07:46:15.900Z,7.00
2023-03-28T07:48:43.976Z,6.90
2023-03-28T07:51:11.412Z,8.50
2023-03-28T07:53:39.242Z,7.10
2023-03-28T07:56:12.048Z,7.70
2023-03-28T07:58:41.552Z,7.50
2023-03-28T08:01:12.205Z,7.50
2023-03-28T08:03:39.829Z,6.40
2023-03-28T08:06:24.217Z,5.00
2023-03-28T08:08:56.231Z,6.10
2023-03-28T08:11:23.274Z,5.40
2023-03-28T08:13:50.145Z,4.80
2023-03-28T08:16:17.086Z,6.30
2023-03-28T08:18:44.096Z,7.20
2023-03-28T08:21:11.127Z,6.90
2023-03-28T08:23:38.037Z,6.80
2023-03-28T08:26:06.472Z,7.70
2023-03-28T08:28:37.553Z,8.50
2023-03-28T08:31:16.005Z,7.10
2023-03-28T08:33:51.696Z,6.90
2023-03-28T08:36:20.999Z,5.70
2023-03-28T08:38:51.724Z,5.60
2023-03-28T08:41:29.115Z,4.60
2023-03-28T08:44:26.038Z,5.00
2023-03-28T08:46:58.531Z,4.30
2023-03-28T08:49:25.792Z,5.20
2023-03-28T08:52:05.847Z,4.40
2023-03-28T08:54:51.571Z,5.10
2023-03-28T08:57:26.131Z,5.70
2023-03-28T09:00:14.614Z,3.90
2023-03-28T09:02:43.001Z,4.30
2023-03-28T09:05:23.148Z,3.70
2023-03-28T09:07:55.667Z,4.10
2023-03-28T09:10:35.347Z,3.30
2023-03-28T09:13:26.195Z,4.20
2023-03-28T09:15:55.917Z,3.10
2023-03-28T09:18:42.802Z,3.00
2023-03-28T09:21:23.550Z,3.00
2023-03-28T09:24:15.500Z,2.70
2023-03-28T09:26:48.568Z,2.60
2023-03-28T09:29:19.771Z,2.90
2023-03-28T09:31:53.465Z,3.10
2023-03-28T09:34:32.553Z,2.60
2023-03-28T09:37:07.380Z,2.70
2023-03-28T09:39:42.759Z,3.40
2023-03-28T09:42:30.618Z,3.90
2023-03-28T09:45:30.653Z,2.90
2023-03-28T09:47:57.738Z,3.50
2023-03-28T09:50:24.737Z,2.80
2023-03-28T09:52:52.014Z,2.30
2023-03-28T09:55:25.476Z,2.10
2023-03-28T09:58:11.339Z,2.00
2023-03-28T10:00:50.427Z,2.10
2023-03-28T10:03:23.431Z,2.40
2023-03-28T10:05:54.072Z,2.90
2023-03-28T10:08:27.309Z,3.10
2023-03-28T10:11:07.096Z,3.40
2023-03-28T10:13:42.739Z,3.60
2023-03-28T10:16:16.315Z,2.90
2023-03-28T10:18:43.721Z,3.20
2023-03-28T10:21:21.352Z,2.90
2023-03-28T10:24:00.303Z,3.30
2023-03-28T10:26:29.203Z,4.40
2023-03-28T10:29:03.728Z,4.00
2023-03-28T10:31:33.347Z,3.30
2023-03-28T10:34:03.313Z,3.20
2023-03-28T10:36:35.008Z,4.60
2023-03-28T10:39:21.927Z,3.80
2023-03-28T10:41:57.448Z,5.30
2023-03-28T10:44:33.428Z,3.50
2023-03-28T10:47:03.699Z,3.40
2023-03-28T10:49:41.438Z,3.00
2023-03-28T10:52:23.482Z,3.00
2023-03-28T10:55:07.943Z,2.80
2023-03-28T10:57:51.476Z,2.60
2023-03-28T11:00:43.355Z,3.20
2023-03-28T11:03:30.233Z,2.40
2023-03-28T11:06:17.480Z,3.10
2023-03-28T11:08:59.760Z,3.10
2023-03-28T11:11:49.771Z,3.20
2023-03-28T11:14:44.521Z,12.70
2023-03-28T11:17:37.886Z,3.80
2023-03-28T11:20:23.234Z,3.60
2023-03-28T11:23:06.208Z,4.60
2023-03-28T11:26:13.628Z,4.90
2023-03-28T11:28:58.861Z,4.30
2023-03-28T11:31:50.302Z,3.20
2023-03-28T11:34:29.426Z,3.40
2023-03-28T11:37:07.820Z,3.40
2023-03-28T11:40:07.529Z,3.30
2023-03-28T11:42:45.120Z,3.30
2023-03-28T11:45:12.377Z,3.80
2023-03-28T11:47:51.565Z,3.70
2023-03-28T11:50:32.881Z,3.30
2023-03-28T11:53:06.953Z,2.80
2023-03-28T11:55:43.691Z,2.40
2023-03-28T11:58:26.203Z,2.90
2023-03-28T12:01:06.931Z,2.10
2023-03-28T12:04:02.037Z,1.90
2023-03-28T12:06:32.979Z,2.60
2023-03-28T12:09:11.478Z,2.20
2023-03-28T12:11:43.476Z,2.80
2023-03-28T12:14:29.938Z,3.80
2023-03-28T12:16:59.101Z,4.20
2023-03-28T12:19:36.999Z,4.80
2023-03-28T12:22:13.400Z,7.40
2023-03-28T12:24:50.088Z,4.80
2023-03-28T12:27:19.666Z,3.50
2023-03-28T12:36:14.573Z,3.00
2023-03-28T12:39:12.802Z,2.80
2023-03-28T12:41:41.512Z,2.80
2023-03-28T12:44:16.191Z,3.00
2023-03-28T12:47:12.074Z,2.60
2023-03-28T12:49:42.516Z,2.70
2023-03-28T12:52:16.814Z,2.90
2023-03-28T12:55:08.993Z,2.50
2023-03-28T12:57:47.171Z,2.40
2023-03-28T13:00:52.424Z,2.90
2023-03-28T13:03:45.923Z,2.90
2023-03-28T13:06:40.588Z,3.10
2023-03-28T13:09:41.749Z,2.70
2023-03-28T13:12:31.349Z,2.80
2023-03-28T13:15:02.933Z,3.40
2023-03-28T13:17:33.071Z,3.30
2023-03-28T13:20:24.754Z,3.40
2023-03-28T13:22:57.735Z,4.50
2023-03-28T13:25:33.791Z,3.80
2023-03-28T13:28:17.417Z,4.20
2023-03-28T13:30:46.873Z,4.80
2023-03-28T13:33:30.324Z,5.10
2023-03-28T13:36:00.036Z,4.90
2023-03-28T13:38:27.221Z,4.00
2023-03-28T13:40:56.088Z,3.80
2023-03-28T13:43:43.758Z,3.80
2023-03-28T13:46:20.050Z,4.80
2023-03-28T13:49:08.597Z,3.90
2023-03-28T13:51:53.584Z,4.20
2023-03-28T13:54:21.713Z,3.70
2023-03-28T13:56:51.511Z,4.00
2023-03-28T13:59:28.012Z,4.10
2023-03-28T14:01:57.848Z,4.60
2023-03-28T14:07:05.792Z,3.90
2023-03-28T14:09:35.724Z,4.20
2023-03-28T14:12:06.853Z,3.10
2023-03-28T14:14:42.015Z,2.70
2023-03-28T14:17:15.521Z,2.60
2023-03-28T14:19:52.000Z,3.40
2023-03-28T14:22:21.964Z,3.40
2023-03-28T14:27:39.305Z,2.90
2023-03-28T14:30:22.689Z,3.30
2023-03-28T14:33:14.552Z,3.10
2023-03-28T14:35:43.197Z,3.20
2023-03-28T14:38:16.279Z,3.00
2023-03-28T14:40:45.883Z,4.20
2023-03-28T14:43:14.030Z,3.50
2023-03-28T14:45:44.239Z,3.10
2023-03-28T14:48:19.889Z,3.40
2023-03-28T14:50:50.190Z,3.50
2023-03-28T14:53:29.693Z,3.40
2023-03-28T14:56:02.795Z,3.80
2023-03-28T14:58:31.540Z,5.10
2023-03-28T15:01:04.591Z,5.40
2023-03-28T15:03:39.303Z,4.80
2023-03-28T15:06:09.627Z,4.40
2023-03-28T15:08:38.460Z,5.20
2023-03-28T15:11:05.736Z,4.30
2023-03-28T15:13:38.708Z,4.80
2023-03-28T15:16:09.069Z,4.30
2023-03-28T15:18:47.707Z,5.70
2023-03-28T15:21:15.245Z,4.60
2023-03-28T15:23:49.472Z,3.90
2023-03-28T15:26:26.212Z,4.50
2023-03-28T15:28:55.679Z,4.60
2023-03-28T15:31:22.878Z,5.90
2023-03-28T15:33:51.895Z,6.00
2023-03-28T15:36:20.363Z,5.20
2023-03-28T15:38:53.644Z,4.60
2023-03-28T15:41:34.492Z,4.00
2023-03-28T15:44:29.132Z,4.10
2023-03-28T15:47:22.427Z,4.20
2023-03-28T15:49:50.842Z,5.30
2023-03-28T15:52:23.168Z,7.60
2023-03-28T15:54:52.931Z,4.90
2023-03-28T15:57:27.495Z,4.70
2023-03-28T15:59:56.322Z,5.30
2023-03-28T16:02:23.047Z,5.50
2023-03-28T16:05:06.939Z,4.90
2023-03-28T16:07:48.976Z,6.00
2023-03-28T16:10:21.324Z,4.60
2023-03-28T16:12:51.281Z,5.00
2023-03-28T16:15:19.439Z,5.10
2023-03-28T16:17:47.488Z,4.80
2023-03-28T16:20:20.270Z,5.10
2023-03-28T16:22:47.667Z,5.60
2023-03-28T16:25:15.023Z,6.10
2023-03-28T16:27:43.876Z,4.70
2023-03-28T16:30:26.570Z,3.70
2023-03-28T16:32:53.430Z,4.10
2023-03-28T16:35:20.322Z,4.20
2023-03-28T16:37:47.375Z,4.20
2023-03-28T16:40:15.784Z,9.10
2023-03-28T16:42:42.880Z,6.50
2023-03-28T16:45:13.064Z,7.20
2023-03-28T16:47:40.849Z,7.50
2023-03-28T16:50:10.068Z,6.70
2023-03-28T16:52:40.585Z,7.70
2023-03-28T16:55:12.952Z,7.30
2023-03-28T16:57:40.810Z,8.70
2023-03-28T17:00:11.756Z,7.90
2023-03-28T17:02:39.012Z,7.70
2023-03-28T17:05:06.378Z,9.30
2023-03-28T17:07:33.128Z,8.10
2023-03-28T17:10:00.119Z,9.90
2023-03-28T17:12:27.456Z,9.80
2023-03-28T17:14:54.364Z,8.60
2023-03-28T17:17:21.552Z,9.60
2023-03-28T17:19:49.480Z,10.60
2023-03-28T17:22:16.312Z,8.10
2023-03-28T17:24:44.320Z,9.50
2023-03-28T17:27:11.086Z,9.20
2023-03-28T17:29:37.920Z,9.30
2023-03-28T17:32:06.020Z,9.80
2023-03-28T17:34:32.857Z,10.10
2023-03-28T17:37:00.743Z,9.30
2023-03-28T17:39:28.894Z,9.40
2023-03-28T17:41:55.652Z,9.50
2023-03-28T17:44:22.468Z,8.50
2023-03-28T17:46:49.628Z,9.70
2023-03-28T17:49:18.300Z,9.00
2023-03-28T17:51:45.702Z,10.70
2023-03-28T17:54:13.179Z,13.90
2023-03-28T17:56:40.149Z,11.40
2023-03-28T17:59:07.586Z,11.00
2023-03-28T18:01:34.489Z,8.50
2023-03-28T18:04:01.969Z,5.80
2023-03-28T18:06:28.935Z,3.60
2023-03-28T18:08:55.769Z,6.60
2023-03-28T18:11:23.110Z,8.70
2023-03-28T18:13:52.889Z,8.10
2023-03-28T18:16:20.032Z,10.20
2023-03-28T18:18:46.919Z,9.20
2023-03-28T18:21:14.477Z,11.50
2023-03-28T18:23:41.411Z,10.80
2023-03-28T18:26:09.238Z,12.10
2023-03-28T18:28:36.924Z,13.70
2023-03-28T18:31:15.890Z,11.40
2023-03-28T18:33:44.305Z,10.50
2023-03-28T18:36:13.483Z,9.60
2023-03-28T18:38:43.176Z,9.70
2023-03-28T18:41:12.837Z,9.40
2023-03-28T18:43:41.542Z,10.30
2023-03-28T18:46:09.560Z,10.40
2023-03-28T18:48:36.614Z,8.80
2023-03-28T18:51:06.470Z,8.20
2023-03-28T18:53:35.578Z,7.00
2023-03-28T18:56:03.537Z,6.70
2023-03-28T18:58:31.568Z,7.20
2023-03-28T19:01:03.964Z,6.70
2023-03-28T19:03:33.377Z,6.10
2023-03-28T19:06:02.799Z,6.80
2023-03-28T19:08:30.848Z,5.60
2023-03-28T19:11:00.338Z,7.00
2023-03-28T19:13:29.106Z,7.60
2023-03-28T19:16:11.771Z,6.90
2023-03-28T19:18:41.242Z,6.40
2023-03-28T19:21:09.602Z,5.60
2023-03-28T19:23:39.480Z,6.70
2023-03-28T19:28:34.095Z,6.70
2023-03-28T19:31:07.563Z,5.60
2023-03-28T19:33:35.738Z,5.80
2023-03-28T19:36:03.303Z,5.20
2023-03-28T19:38:35.263Z,5.70
2023-03-28T19:41:05.615Z,6.80
2023-03-28T19:43:33.963Z,6.80
2023-03-28T19:46:06.339Z,5.50
2023-03-28T19:48:35.031Z,5.70
2023-03-28T19:51:02.081Z,4.70
2023-03-28T19:53:28.929Z,5.00
2023-03-28T19:56:01.822Z,4.90
2023-03-28T19:58:29.326Z,4.60
2023-03-28T20:00:57.223Z,5.10
2023-03-28T20:03:25.230Z,4.70
2023-03-28T20:05:52.443Z,4.70
2023-03-28T20:08:19.861Z,5.70
2023-03-28T20:10:48.765Z,4.90
2023-03-28T20:13:17.404Z,4.80
2023-03-28T20:15:45.797Z,5.10
2023-03-28T20:18:15.796Z,5.90
2023-03-28T20:20:42.868Z,7.00
2023-03-28T20:23:11.850Z,8.20
2023-03-28T20:25:38.947Z,10.20
2023-03-28T20:28:10.128Z,9.20
2023-03-28T20:30:37.959Z,7.40
2023-03-28T20:33:04.978Z,8.50
2023-03-28T20:35:32.104Z,8.50
2023-03-28T20:37:59.839Z,7.90
2023-03-28T20:40:27.025Z,8.40
2023-03-28T20:42:54.528Z,8.20
2023-03-28T20:45:24.107Z,7.70
2023-03-28T20:47:56.818Z,7.50
2023-03-28T20:50:26.199Z,6.80
2023-03-28T20:52:53.279Z,8.20
2023-03-28T20:55:20.069Z,8.30
2023-03-28T20:57:46.795Z,7.80
2023-03-28T21:00:15.038Z,7.10
2023-03-28T21:02:44.782Z,8.50
2023-03-28T21:05:12.676Z,7.80
2023-03-28T21:07:39.656Z,7.80
2023-03-28T21:10:10.259Z,7.30
2023-03-28T21:12:37.024Z,7.50
2023-03-28T21:15:04.014Z,5.90
2023-03-28T21:17:30.972Z,7.00
2023-03-28T21:19:59.232Z,6.20
2023-03-28T21:22:26.248Z,5.70
2023-03-28T21:24:53.016Z,6.10
2023-03-28T21:27:19.852Z,6.10
2023-03-28T21:29:46.885Z,5.50
2023-03-28T21:32:14.671Z,6.50
2023-03-28T21:34:43.349Z,6.70
2023-03-28T21:37:10.956Z,6.20
2023-03-28T21:39:39.611Z,6.60
2023-03-28T21:42:07.475Z,5.90
2023-03-28T21:44:34.286Z,5.20
2023-03-28T21:47:01.315Z,5.60
2023-03-28T21:49:30.742Z,5.80
2023-03-28T21:51:57.507Z,5.50
2023-03-28T21:54:25.753Z,5.90
2023-03-28T21:56:52.563Z,5.60
2023-03-28T21:59:19.557Z,6.50
2023-03-28T22:01:46.374Z,5.90
2023-03-28T22:04:13.245Z,6.00
2023-03-28T22:06:43.439Z,5.60
2023-03-28T22:09:10.918Z,5.30
2023-03-28T22:11:43.495Z,5.00
2023-03-28T22:14:13.368Z,6.20
2023-03-28T22:19:12.234Z,5.30
2023-03-28T22:21:38.936Z,5.20
2023-03-28T22:24:10.382Z,5.60
2023-03-28T22:26:37.235Z,6.00
2023-03-28T22:29:05.171Z,4.70
2023-03-28T22:31:32.410Z,5.40
2023-03-28T22:33:59.303Z,5.20
2023-03-28T22:36:26.361Z,5.40
2023-03-28T22:38:54.919Z,5.20
2023-03-28T22:41:21.926Z,5.20
2023-03-28T22:43:48.647Z,6.30
2023-03-28T22:46:18.487Z,5.90
2023-03-28T22:51:12.313Z,5.50
2023-03-28T22:53:39.778Z,5.80
2023-03-28T22:56:07.722Z,5.10
2023-03-28T22:58:34.837Z,5.40
2023-03-28T23:01:02.835Z,5.70
2023-03-28T23:03:29.846Z,6.20
2023-03-28T23:06:00.754Z,5.60
2023-03-28T23:08:28.348Z,5.10
2023-03-28T23:10:55.191Z,5.80
2023-03-28T23:13:21.957Z,5.90
2023-03-28T23:15:48.732Z,5.40
2023-03-28T23:18:17.345Z,5.90
2023-03-28T23:20:49.811Z,6.20
2023-03-28T23:23:17.391Z,5.10
2023-03-28T23:25:45.717Z,5.40
2023-03-28T23:28:12.458Z,6.80
2023-03-28T23:30:39.328Z,6.70
2023-03-28T23:33:06.515Z,6.00
2023-03-28T23:35:33.343Z,5.40
2023-03-28T23:38:00.361Z,6.40
2023-03-28T23:40:27.188Z,6.60
2023-03-28T23:42:53.878Z,6.80
2023-03-28T23:45:20.673Z,6.00
2023-03-28T23:47:47.409Z,6.50
2023-03-28T23:50:14.407Z,6.70
2023-03-28T23:52:41.265Z,7.50
2023-03-28T23:55:09.016Z,7.00
2023-03-28T23:57:36.283Z,7.40
